Terminal Aerodrome Forecast
Issued by NWS Brownsville, TX

Current Version | Previous Version | Text Only | Print | Product List | Glossary Off
Versions: 1 2 3 4 5 6 7 8 9 10 11 12 13 14 15

000
FTUS44 KBRO 201200 AAB
TAFBRO
TAF AMD
KBRO 201200Z 2012/2112 35006KT P6SM BKN050
     FM201400 36005KT P6SM VCSH OVC040
     FM201800 09007KT P6SM OVC040
     FM202100 07008KT P6SM OVC035
     FM210300 VRB03KT P6SM SCT040=

USA.gov is the U.S. government's official web portal to all federal, state and local government web resources and services.